sensor_id;sensor_type;location;lat;lon;timestamp;P1;durP1;ratioP1;P2;durP2;ratioP2
39188;SDS011;24915;50.858;4.376;2023-05-07T00:00:03;7.32;;;4.00;;
39188;SDS011;24915;50.858;4.376;2023-05-07T00:02:32;7.40;;;3.78;;
39188;SDS011;24915;50.858;4.376;2023-05-07T00:04:58;10.75;;;4.78;;
39188;SDS011;24915;50.858;4.376;2023-05-07T00:07:24;10.15;;;4.22;;
39188;SDS011;24915;50.858;4.376;2023-05-07T00:09:50;7.47;;;4.07;;
39188;SDS011;24915;50.858;4.376;2023-05-07T00:12:16;10.90;;;4.63;;
39188;SDS011;24915;50.858;4.376;2023-05-07T00:14:42;11.13;;;3.97;;
39188;SDS011;24915;50.858;4.376;2023-05-07T00:17:08;8.90;;;4.25;;
39188;SDS011;24915;50.858;4.376;2023-05-07T00:19:34;10.70;;;4.03;;
39188;SDS011;24915;50.858;4.376;2023-05-07T00:22:00;10.90;;;4.45;;
39188;SDS011;24915;50.858;4.376;2023-05-07T00:24:26;9.73;;;3.90;;
39188;SDS011;24915;50.858;4.376;2023-05-07T00:26:52;8.52;;;3.92;;
39188;SDS011;24915;50.858;4.376;2023-05-07T00:29:18;12.38;;;4.20;;
39188;SDS011;24915;50.858;4.376;2023-05-07T00:31:45;11.23;;;3.63;;
39188;SDS011;24915;50.858;4.376;2023-05-07T00:34:11;9.82;;;4.03;;
39188;SDS011;24915;50.858;4.376;2023-05-07T00:36:37;10.60;;;4.22;;
39188;SDS011;24915;50.858;4.376;2023-05-07T00:39:03;7.20;;;3.63;;
39188;SDS011;24915;50.858;4.376;2023-05-07T00:41:29;11.95;;;3.95;;
39188;SDS011;24915;50.858;4.376;2023-05-07T00:43:56;9.35;;;3.75;;
39188;SDS011;24915;50.858;4.376;2023-05-07T00:46:23;12.23;;;4.10;;
39188;SDS011;24915;50.858;4.376;2023-05-07T00:48:49;10.50;;;3.97;;
39188;SDS011;24915;50.858;4.376;2023-05-07T00:51:16;14.25;;;4.68;;
39188;SDS011;24915;50.858;4.376;2023-05-07T00:53:43;16.65;;;4.10;;
39188;SDS011;24915;50.858;4.376;2023-05-07T00:56:09;17.30;;;4.35;;
39188;SDS011;24915;50.858;4.376;2023-05-07T00:58:36;9.43;;;4.20;;
39188;SDS011;24915;50.858;4.376;2023-05-07T01:01:02;9.73;;;3.80;;
39188;SDS011;24915;50.858;4.376;2023-05-07T01:03:28;11.63;;;4.07;;
39188;SDS011;24915;50.858;4.376;2023-05-07T01:05:54;8.77;;;3.55;;
39188;SDS011;24915;50.858;4.376;2023-05-07T01:08:22;9.38;;;3.15;;
39188;SDS011;24915;50.858;4.376;2023-05-07T01:10:49;10.65;;;3.50;;
39188;SDS011;24915;50.858;4.376;2023-05-07T01:13:16;10.18;;;3.35;;
39188;SDS011;24915;50.858;4.376;2023-05-07T01:15:42;11.48;;;4.28;;
39188;SDS011;24915;50.858;4.376;2023-05-07T01:18:09;11.35;;;3.30;;
39188;SDS011;24915;50.858;4.376;2023-05-07T01:20:35;9.50;;;3.50;;
39188;SDS011;24915;50.858;4.376;2023-05-07T01:23:01;15.73;;;4.35;;
39188;SDS011;24915;50.858;4.376;2023-05-07T01:25:27;12.85;;;3.97;;
39188;SDS011;24915;50.858;4.376;2023-05-07T01:27:54;11.38;;;4.18;;
39188;SDS011;24915;50.858;4.376;2023-05-07T01:30:20;8.93;;;3.95;;
39188;SDS011;24915;50.858;4.376;2023-05-07T01:33:04;12.45;;;4.18;;
39188;SDS011;24915;50.858;4.376;2023-05-07T01:35:34;13.67;;;4.17;;
39188;SDS011;24915;50.858;4.376;2023-05-07T01:38:01;11.93;;;4.45;;
39188;SDS011;24915;50.858;4.376;2023-05-07T01:40:29;13.25;;;4.60;;
39188;SDS011;24915;50.858;4.376;2023-05-07T01:42:55;15.63;;;4.65;;
39188;SDS011;24915;50.858;4.376;2023-05-07T01:45:22;11.13;;;4.43;;
39188;SDS011;24915;50.858;4.376;2023-05-07T01:47:49;13.52;;;4.63;;
39188;SDS011;24915;50.858;4.376;2023-05-07T01:50:15;12.75;;;4.45;;
39188;SDS011;24915;50.858;4.376;2023-05-07T01:52:42;14.27;;;4.57;;
39188;SDS011;24915;50.858;4.376;2023-05-07T01:55:08;11.70;;;4.05;;
39188;SDS011;24915;50.858;4.376;2023-05-07T01:57:35;9.65;;;4.18;;
39188;SDS011;24915;50.858;4.376;2023-05-07T02:00:01;12.85;;;4.55;;
39188;SDS011;24915;50.858;4.376;2023-05-07T02:02:31;13.80;;;4.25;;
39188;SDS011;24915;50.858;4.376;2023-05-07T02:04:58;10.95;;;4.53;;
39188;SDS011;24915;50.858;4.376;2023-05-07T02:07:24;13.23;;;4.40;;
39188;SDS011;24915;50.858;4.376;2023-05-07T02:09:50;12.77;;;4.20;;
39188;SDS011;24915;50.858;4.376;2023-05-07T02:12:16;14.07;;;4.25;;
39188;SDS011;24915;50.858;4.376;2023-05-07T02:14:42;12.98;;;4.07;;
39188;SDS011;24915;50.858;4.376;2023-05-07T02:17:08;10.48;;;3.95;;
39188;SDS011;24915;50.858;4.376;2023-05-07T02:19:34;14.77;;;4.20;;
39188;SDS011;24915;50.858;4.376;2023-05-07T02:22:00;10.30;;;4.38;;
39188;SDS011;24915;50.858;4.376;2023-05-07T02:24:26;13.32;;;4.30;;
39188;SDS011;24915;50.858;4.376;2023-05-07T02:26:52;14.82;;;4.57;;
39188;SDS011;24915;50.858;4.376;2023-05-07T02:29:18;10.80;;;3.97;;
39188;SDS011;24915;50.858;4.376;2023-05-07T02:31:44;11.95;;;3.80;;
39188;SDS011;24915;50.858;4.376;2023-05-07T02:34:10;12.27;;;4.03;;
39188;SDS011;24915;50.858;4.376;2023-05-07T02:36:36;9.98;;;3.58;;
39188;SDS011;24915;50.858;4.376;2023-05-07T02:39:04;11.43;;;4.38;;
39188;SDS011;24915;50.858;4.376;2023-05-07T02:41:30;10.95;;;3.78;;
39188;SDS011;24915;50.858;4.376;2023-05-07T02:43:56;10.32;;;3.90;;
39188;SDS011;24915;50.858;4.376;2023-05-07T02:46:22;9.65;;;3.65;;
39188;SDS011;24915;50.858;4.376;2023-05-07T02:48:48;12.73;;;4.07;;
39188;SDS011;24915;50.858;4.376;2023-05-07T02:51:14;8.15;;;3.30;;
39188;SDS011;24915;50.858;4.376;2023-05-07T02:53:40;6.60;;;3.38;;
39188;SDS011;24915;50.858;4.376;2023-05-07T02:56:06;7.53;;;3.50;;
39188;SDS011;24915;50.858;4.376;2023-05-07T02:58:32;13.57;;;4.05;;
39188;SDS011;24915;50.858;4.376;2023-05-07T03:00:58;10.93;;;4.28;;
39188;SDS011;24915;50.858;4.376;2023-05-07T03:03:24;8.68;;;3.70;;
39188;SDS011;24915;50.858;4.376;2023-05-07T03:05:50;16.42;;;4.30;;
39188;SDS011;24915;50.858;4.376;2023-05-07T03:08:17;11.60;;;4.00;;
39188;SDS011;24915;50.858;4.376;2023-05-07T03:10:43;11.38;;;4.60;;
39188;SDS011;24915;50.858;4.376;2023-05-07T03:13:09;11.00;;;4.00;;
39188;SDS011;24915;50.858;4.376;2023-05-07T03:15:35;10.15;;;4.00;;
39188;SDS011;24915;50.858;4.376;2023-05-07T03:18:01;11.68;;;4.13;;
39188;SDS011;24915;50.858;4.376;2023-05-07T03:20:27;11.98;;;4.20;;
39188;SDS011;24915;50.858;4.376;2023-05-07T03:22:53;11.93;;;4.15;;
39188;SDS011;24915;50.858;4.376;2023-05-07T03:25:19;13.27;;;4.38;;
39188;SDS011;24915;50.858;4.376;2023-05-07T03:27:45;9.65;;;4.00;;
39188;SDS011;24915;50.858;4.376;2023-05-07T03:30:12;10.93;;;3.65;;
39188;SDS011;24915;50.858;4.376;2023-05-07T03:32:38;15.43;;;4.53;;
39188;SDS011;24915;50.858;4.376;2023-05-07T03:35:04;11.02;;;4.32;;
39188;SDS011;24915;50.858;4.376;2023-05-07T03:37:30;10.10;;;3.88;;
39188;SDS011;24915;50.858;4.376;2023-05-07T03:39:56;13.05;;;4.03;;
39188;SDS011;24915;50.858;4.376;2023-05-07T03:42:22;12.27;;;3.95;;
39188;SDS011;24915;50.858;4.376;2023-05-07T03:44:49;13.30;;;4.50;;
39188;SDS011;24915;50.858;4.376;2023-05-07T03:47:15;13.25;;;4.20;;
39188;SDS011;24915;50.858;4.376;2023-05-07T03:49:41;10.38;;;3.75;;
39188;SDS011;24915;50.858;4.376;2023-05-07T03:52:07;9.82;;;3.75;;
39188;SDS011;24915;50.858;4.376;2023-05-07T03:54:33;11.20;;;4.10;;
39188;SDS011;24915;50.858;4.376;2023-05-07T03:56:59;11.98;;;4.55;;
39188;SDS011;24915;50.858;4.376;2023-05-07T03:59:25;11.25;;;4.38;;
39188;SDS011;24915;50.858;4.376;2023-05-07T04:01:51;8.23;;;4.00;;
39188;SDS011;24915;50.858;4.376;2023-05-07T04:04:17;6.53;;;4.43;;
39188;SDS011;24915;50.858;4.376;2023-05-07T04:06:43;11.48;;;4.28;;
39188;SDS011;24915;50.858;4.376;2023-05-07T04:09:09;11.07;;;4.15;;
39188;SDS011;24915;50.858;4.376;2023-05-07T04:11:35;12.55;;;4.60;;
39188;SDS011;24915;50.858;4.376;2023-05-07T04:14:01;10.18;;;4.70;;
39188;SDS011;24915;50.858;4.376;2023-05-07T04:16:27;14.00;;;4.80;;
39188;SDS011;24915;50.858;4.376;2023-05-07T04:18:53;10.40;;;4.57;;
39188;SDS011;24915;50.858;4.376;2023-05-07T04:21:20;13.88;;;4.65;;
39188;SDS011;24915;50.858;4.376;2023-05-07T04:23:47;14.60;;;4.85;;
39188;SDS011;24915;50.858;4.376;2023-05-07T04:26:13;12.82;;;4.70;;
39188;SDS011;24915;50.858;4.376;2023-05-07T04:28:39;13.10;;;4.50;;
39188;SDS011;24915;50.858;4.376;2023-05-07T04:31:06;9.13;;;4.25;;
39188;SDS011;24915;50.858;4.376;2023-05-07T04:33:32;15.57;;;5.20;;
39188;SDS011;24915;50.858;4.376;2023-05-07T04:36:00;13.70;;;4.72;;
39188;SDS011;24915;50.858;4.376;2023-05-07T04:38:28;12.75;;;4.75;;
39188;SDS011;24915;50.858;4.376;2023-05-07T04:40:55;12.20;;;4.15;;
39188;SDS011;24915;50.858;4.376;2023-05-07T04:43:22;14.07;;;4.28;;
39188;SDS011;24915;50.858;4.376;2023-05-07T04:45:49;14.23;;;4.28;;
39188;SDS011;24915;50.858;4.376;2023-05-07T04:48:15;13.90;;;4.50;;
39188;SDS011;24915;50.858;4.376;2023-05-07T04:50:44;11.50;;;3.92;;
39188;SDS011;24915;50.858;4.376;2023-05-07T04:53:10;12.55;;;4.40;;
39188;SDS011;24915;50.858;4.376;2023-05-07T04:55:36;8.15;;;3.63;;
39188;SDS011;24915;50.858;4.376;2023-05-07T04:58:02;12.70;;;4.60;;
39188;SDS011;24915;50.858;4.376;2023-05-07T05:00:30;12.98;;;4.55;;
39188;SDS011;24915;50.858;4.376;2023-05-07T05:02:56;15.55;;;4.80;;
39188;SDS011;24915;50.858;4.376;2023-05-07T05:05:22;12.32;;;4.72;;
39188;SDS011;24915;50.858;4.376;2023-05-07T05:07:48;10.32;;;4.35;;
39188;SDS011;24915;50.858;4.376;2023-05-07T05:10:14;15.52;;;4.55;;
39188;SDS011;24915;50.858;4.376;2023-05-07T05:12:41;10.38;;;4.07;;
39188;SDS011;24915;50.858;4.376;2023-05-07T05:15:07;12.73;;;5.40;;
39188;SDS011;24915;50.858;4.376;2023-05-07T05:17:33;11.32;;;5.00;;
39188;SDS011;24915;50.858;4.376;2023-05-07T05:20:00;13.60;;;4.70;;
39188;SDS011;24915;50.858;4.376;2023-05-07T05:22:26;13.65;;;5.57;;
39188;SDS011;24915;50.858;4.376;2023-05-07T05:24:54;13.50;;;5.13;;
39188;SDS011;24915;50.858;4.376;2023-05-07T05:27:20;13.07;;;4.72;;
39188;SDS011;24915;50.858;4.376;2023-05-07T05:29:46;14.40;;;5.20;;
39188;SDS011;24915;50.858;4.376;2023-05-07T05:32:13;13.10;;;4.88;;
39188;SDS011;24915;50.858;4.376;2023-05-07T05:34:39;10.20;;;5.60;;
39188;SDS011;24915;50.858;4.376;2023-05-07T05:37:05;20.65;;;5.85;;
39188;SDS011;24915;50.858;4.376;2023-05-07T05:39:31;19.30;;;6.00;;
39188;SDS011;24915;50.858;4.376;2023-05-07T05:41:59;19.58;;;6.07;;
39188;SDS011;24915;50.858;4.376;2023-05-07T05:44:25;11.65;;;5.40;;
39188;SDS011;24915;50.858;4.376;2023-05-07T05:46:51;15.20;;;5.68;;
39188;SDS011;24915;50.858;4.376;2023-05-07T05:49:19;14.20;;;5.75;;
39188;SDS011;24915;50.858;4.376;2023-05-07T05:51:45;20.55;;;6.68;;
39188;SDS011;24915;50.858;4.376;2023-05-07T05:54:11;18.38;;;7.10;;
39188;SDS011;24915;50.858;4.376;2023-05-07T05:56:38;18.02;;;7.65;;
39188;SDS011;24915;50.858;4.376;2023-05-07T05:59:04;17.40;;;7.05;;
39188;SDS011;24915;50.858;4.376;2023-05-07T06:01:30;16.58;;;6.07;;
39188;SDS011;24915;50.858;4.376;2023-05-07T06:03:56;14.23;;;5.53;;
39188;SDS011;24915;50.858;4.376;2023-05-07T06:06:22;17.15;;;5.43;;
39188;SDS011;24915;50.858;4.376;2023-05-07T06:08:49;11.55;;;4.57;;
39188;SDS011;24915;50.858;4.376;2023-05-07T06:11:15;11.55;;;4.50;;
39188;SDS011;24915;50.858;4.376;2023-05-07T06:13:41;12.40;;;4.63;;
39188;SDS011;24915;50.858;4.376;2023-05-07T06:16:07;14.70;;;5.10;;
39188;SDS011;24915;50.858;4.376;2023-05-07T06:18:33;13.48;;;4.25;;
39188;SDS011;24915;50.858;4.376;2023-05-07T06:21:01;14.77;;;5.22;;
39188;SDS011;24915;50.858;4.376;2023-05-07T06:23:27;16.52;;;4.68;;
39188;SDS011;24915;50.858;4.376;2023-05-07T06:25:53;11.48;;;4.45;;
39188;SDS011;24915;50.858;4.376;2023-05-07T06:28:19;14.68;;;4.85;;
39188;SDS011;24915;50.858;4.376;2023-05-07T06:30:45;10.27;;;4.38;;
39188;SDS011;24915;50.858;4.376;2023-05-07T06:33:11;15.27;;;5.10;;
39188;SDS011;24915;50.858;4.376;2023-05-07T06:35:37;12.25;;;4.95;;
39188;SDS011;24915;50.858;4.376;2023-05-07T06:38:03;10.98;;;3.83;;
39188;SDS011;24915;50.858;4.376;2023-05-07T06:40:29;10.15;;;4.28;;
39188;SDS011;24915;50.858;4.376;2023-05-07T06:42:55;10.65;;;4.50;;
39188;SDS011;24915;50.858;4.376;2023-05-07T06:45:21;10.15;;;4.10;;
39188;SDS011;24915;50.858;4.376;2023-05-07T06:47:48;12.35;;;4.32;;
39188;SDS011;24915;50.858;4.376;2023-05-07T06:50:14;14.95;;;5.32;;
39188;SDS011;24915;50.858;4.376;2023-05-07T06:52:42;11.80;;;4.90;;
39188;SDS011;24915;50.858;4.376;2023-05-07T06:55:08;9.55;;;4.60;;
39188;SDS011;24915;50.858;4.376;2023-05-07T06:57:36;16.35;;;6.30;;
39188;SDS011;24915;50.858;4.376;2023-05-07T07:00:02;11.98;;;4.85;;
39188;SDS011;24915;50.858;4.376;2023-05-07T07:02:29;9.68;;;4.18;;
39188;SDS011;24915;50.858;4.376;2023-05-07T07:04:55;9.60;;;4.80;;
39188;SDS011;24915;50.858;4.376;2023-05-07T07:07:21;8.43;;;4.00;;
39188;SDS011;24915;50.858;4.376;2023-05-07T07:09:48;13.13;;;4.35;;
39188;SDS011;24915;50.858;4.376;2023-05-07T07:12:16;18.98;;;7.93;;
39188;SDS011;24915;50.858;4.376;2023-05-07T07:14:42;17.63;;;7.07;;
39188;SDS011;24915;50.858;4.376;2023-05-07T07:17:08;12.77;;;4.47;;
39188;SDS011;24915;50.858;4.376;2023-05-07T07:19:35;11.85;;;4.00;;
39188;SDS011;24915;50.858;4.376;2023-05-07T07:22:01;10.85;;;5.10;;
39188;SDS011;24915;50.858;4.376;2023-05-07T07:24:27;11.30;;;5.75;;
39188;SDS011;24915;50.858;4.376;2023-05-07T07:26:53;11.07;;;3.85;;
39188;SDS011;24915;50.858;4.376;2023-05-07T07:29:20;7.60;;;3.67;;
39188;SDS011;24915;50.858;4.376;2023-05-07T07:31:47;13.93;;;8.02;;
39188;SDS011;24915;50.858;4.376;2023-05-07T07:34:14;10.70;;;5.20;;
39188;SDS011;24915;50.858;4.376;2023-05-07T07:36:40;14.57;;;6.82;;
39188;SDS011;24915;50.858;4.376;2023-05-07T07:39:06;9.32;;;4.35;;
39188;SDS011;24915;50.858;4.376;2023-05-07T07:41:32;12.18;;;4.65;;
39188;SDS011;24915;50.858;4.376;2023-05-07T07:43:58;7.90;;;4.10;;
39188;SDS011;24915;50.858;4.376;2023-05-07T07:46:24;12.13;;;5.20;;
39188;SDS011;24915;50.858;4.376;2023-05-07T07:48:51;7.72;;;4.72;;
39188;SDS011;24915;50.858;4.376;2023-05-07T07:51:17;8.68;;;4.03;;
39188;SDS011;24915;50.858;4.376;2023-05-07T07:53:43;10.70;;;5.38;;
39188;SDS011;24915;50.858;4.376;2023-05-07T07:56:10;7.38;;;4.25;;
39188;SDS011;24915;50.858;4.376;2023-05-07T07:58:37;13.20;;;5.82;;
39188;SDS011;24915;50.858;4.376;2023-05-07T08:01:04;8.02;;;3.90;;
39188;SDS011;24915;50.858;4.376;2023-05-07T08:03:30;9.30;;;4.25;;
39188;SDS011;24915;50.858;4.376;2023-05-07T08:05:57;9.73;;;4.38;;
39188;SDS011;24915;50.858;4.376;2023-05-07T08:08:23;8.88;;;4.43;;
39188;SDS011;24915;50.858;4.376;2023-05-07T08:10:49;8.48;;;4.28;;
39188;SDS011;24915;50.858;4.376;2023-05-07T08:13:16;8.75;;;4.13;;
39188;SDS011;24915;50.858;4.376;2023-05-07T08:15:42;8.43;;;4.50;;
39188;SDS011;24915;50.858;4.376;2023-05-07T08:18:08;9.57;;;4.55;;
39188;SDS011;24915;50.858;4.376;2023-05-07T08:20:34;11.30;;;4.20;;
39188;SDS011;24915;50.858;4.376;2023-05-07T08:23:04;11.98;;;4.07;;
39188;SDS011;24915;50.858;4.376;2023-05-07T08:25:35;9.73;;;4.03;;
39188;SDS011;24915;50.858;4.376;2023-05-07T08:28:01;7.57;;;3.95;;
39188;SDS011;24915;50.858;4.376;2023-05-07T08:30:28;10.32;;;5.07;;
39188;SDS011;24915;50.858;4.376;2023-05-07T08:32:54;10.75;;;5.18;;
39188;SDS011;24915;50.858;4.376;2023-05-07T08:35:20;9.18;;;5.10;;
39188;SDS011;24915;50.858;4.376;2023-05-07T08:37:46;9.35;;;4.70;;
39188;SDS011;24915;50.858;4.376;2023-05-07T08:40:12;7.63;;;4.53;;
39188;SDS011;24915;50.858;4.376;2023-05-07T08:42:38;9.15;;;4.50;;
39188;SDS011;24915;50.858;4.376;2023-05-07T08:45:08;7.85;;;4.50;;
39188;SDS011;24915;50.858;4.376;2023-05-07T08:47:44;8.93;;;4.32;;
39188;SDS011;24915;50.858;4.376;2023-05-07T08:50:12;8.13;;;4.07;;
39188;SDS011;24915;50.858;4.376;2023-05-07T08:52:41;12.70;;;4.70;;
39188;SDS011;24915;50.858;4.376;2023-05-07T08:55:07;7.50;;;3.90;;
39188;SDS011;24915;50.858;4.376;2023-05-07T08:57:34;8.55;;;4.60;;
39188;SDS011;24915;50.858;4.376;2023-05-07T09:00:00;7.57;;;4.18;;
39188;SDS011;24915;50.858;4.376;2023-05-07T09:02:26;9.50;;;4.45;;
39188;SDS011;24915;50.858;4.376;2023-05-07T09:04:52;10.05;;;4.55;;
39188;SDS011;24915;50.858;4.376;2023-05-07T09:07:19;8.07;;;4.65;;
39188;SDS011;24915;50.858;4.376;2023-05-07T09:09:45;7.18;;;4.43;;
39188;SDS011;24915;50.858;4.376;2023-05-07T09:12:12;8.10;;;3.95;;
39188;SDS011;24915;50.858;4.376;2023-05-07T09:14:38;9.55;;;3.70;;
39188;SDS011;24915;50.858;4.376;2023-05-07T09:17:04;9.55;;;4.18;;
39188;SDS011;24915;50.858;4.376;2023-05-07T09:19:30;10.45;;;4.53;;
39188;SDS011;24915;50.858;4.376;2023-05-07T09:22:00;8.95;;;4.25;;
39188;SDS011;24915;50.858;4.376;2023-05-07T09:24:26;10.23;;;4.95;;
39188;SDS011;24915;50.858;4.376;2023-05-07T09:26:57;10.55;;;4.90;;
39188;SDS011;24915;50.858;4.376;2023-05-07T09:29:24;7.75;;;4.60;;
39188;SDS011;24915;50.858;4.376;2023-05-07T09:31:50;11.38;;;4.40;;
39188;SDS011;24915;50.858;4.376;2023-05-07T09:34:16;9.60;;;4.13;;
39188;SDS011;24915;50.858;4.376;2023-05-07T09:36:42;7.28;;;4.18;;
39188;SDS011;24915;50.858;4.376;2023-05-07T09:39:08;7.93;;;4.85;;
39188;SDS011;24915;50.858;4.376;2023-05-07T09:41:42;13.93;;;5.28;;
39188;SDS011;24915;50.858;4.376;2023-05-07T09:44:09;9.70;;;5.38;;
39188;SDS011;24915;50.858;4.376;2023-05-07T09:46:36;11.32;;;5.20;;
39188;SDS011;24915;50.858;4.376;2023-05-07T09:49:02;12.85;;;5.90;;
39188;SDS011;24915;50.858;4.376;2023-05-07T09:51:46;11.07;;;5.57;;
39188;SDS011;24915;50.858;4.376;2023-05-07T09:54:13;9.18;;;4.88;;
39188;SDS011;24915;50.858;4.376;2023-05-07T09:56:39;12.43;;;5.68;;
39188;SDS011;24915;50.858;4.376;2023-05-07T09:59:10;9.82;;;5.90;;
39188;SDS011;24915;50.858;4.376;2023-05-07T10:01:38;10.18;;;5.28;;
39188;SDS011;24915;50.858;4.376;2023-05-07T10:04:05;11.50;;;5.60;;
39188;SDS011;24915;50.858;4.376;2023-05-07T10:06:33;9.30;;;4.40;;
39188;SDS011;24915;50.858;4.376;2023-05-07T10:09:00;8.02;;;3.92;;
39188;SDS011;24915;50.858;4.376;2023-05-07T10:11:26;10.63;;;4.30;;
39188;SDS011;24915;50.858;4.376;2023-05-07T10:13:52;6.53;;;3.70;;
39188;SDS011;24915;50.858;4.376;2023-05-07T10:16:18;7.93;;;3.70;;
39188;SDS011;24915;50.858;4.376;2023-05-07T10:18:45;6.20;;;3.50;;
39188;SDS011;24915;50.858;4.376;2023-05-07T10:21:21;8.23;;;3.78;;
39188;SDS011;24915;50.858;4.376;2023-05-07T10:23:53;6.90;;;3.90;;
39188;SDS011;24915;50.858;4.376;2023-05-07T10:26:23;7.82;;;3.22;;
39188;SDS011;24915;50.858;4.376;2023-05-07T10:28:57;5.57;;;3.70;;
39188;SDS011;24915;50.858;4.376;2023-05-07T10:33:51;7.13;;;3.78;;
39188;SDS011;24915;50.858;4.376;2023-05-07T10:36:18;6.50;;;3.72;;
39188;SDS011;24915;50.858;4.376;2023-05-07T10:38:45;9.48;;;4.30;;
39188;SDS011;24915;50.858;4.376;2023-05-07T10:41:11;6.88;;;3.30;;
39188;SDS011;24915;50.858;4.376;2023-05-07T10:43:40;7.55;;;4.20;;
39188;SDS011;24915;50.858;4.376;2023-05-07T10:51:21;8.05;;;4.75;;
39188;SDS011;24915;50.858;4.376;2023-05-07T10:53:48;6.53;;;4.50;;
39188;SDS011;24915;50.858;4.376;2023-05-07T10:58:43;8.30;;;3.95;;
39188;SDS011;24915;50.858;4.376;2023-05-07T11:01:10;13.82;;;8.45;;
39188;SDS011;24915;50.858;4.376;2023-05-07T11:06:24;5.43;;;3.95;;
39188;SDS011;24915;50.858;4.376;2023-05-07T11:08:56;4.70;;;3.35;;
39188;SDS011;24915;50.858;4.376;2023-05-07T11:14:07;9.65;;;5.40;;
39188;SDS011;24915;50.858;4.376;2023-05-07T11:16:33;6.00;;;4.75;;
39188;SDS011;24915;50.858;4.376;2023-05-07T11:19:01;4.35;;;3.13;;
39188;SDS011;24915;50.858;4.376;2023-05-07T11:21:31;5.28;;;2.90;;
39188;SDS011;24915;50.858;4.376;2023-05-07T11:23:58;7.15;;;3.00;;
39188;SDS011;24915;50.858;4.376;2023-05-07T11:26:24;4.20;;;3.28;;
39188;SDS011;24915;50.858;4.376;2023-05-07T11:28:51;6.35;;;3.30;;
39188;SDS011;24915;50.858;4.376;2023-05-07T11:31:21;5.47;;;3.45;;
39188;SDS011;24915;50.858;4.376;2023-05-07T11:33:48;8.40;;;2.97;;
39188;SDS011;24915;50.858;4.376;2023-05-07T11:36:15;5.25;;;2.90;;
39188;SDS011;24915;50.858;4.376;2023-05-07T11:38:41;3.30;;;2.83;;
39188;SDS011;24915;50.858;4.376;2023-05-07T11:41:07;4.30;;;3.28;;
39188;SDS011;24915;50.858;4.376;2023-05-07T11:43:33;6.55;;;3.17;;
39188;SDS011;24915;50.858;4.376;2023-05-07T11:48:32;4.15;;;2.63;;
39188;SDS011;24915;50.858;4.376;2023-05-07T11:51:00;6.28;;;2.90;;
39188;SDS011;24915;50.858;4.376;2023-05-07T11:53:27;3.72;;;2.08;;
39188;SDS011;24915;50.858;4.376;2023-05-07T11:55:55;5.80;;;2.85;;
39188;SDS011;24915;50.858;4.376;2023-05-07T11:58:21;6.45;;;3.78;;
39188;SDS011;24915;50.858;4.376;2023-05-07T12:00:51;4.95;;;2.90;;
39188;SDS011;24915;50.858;4.376;2023-05-07T12:03:17;5.18;;;2.90;;
39188;SDS011;24915;50.858;4.376;2023-05-07T12:05:44;6.93;;;3.15;;
39188;SDS011;24915;50.858;4.376;2023-05-07T12:08:14;3.97;;;2.83;;
39188;SDS011;24915;50.858;4.376;2023-05-07T12:10:41;6.65;;;3.78;;
39188;SDS011;24915;50.858;4.376;2023-05-07T12:15:42;8.90;;;3.70;;
39188;SDS011;24915;50.858;4.376;2023-05-07T12:18:08;4.93;;;4.13;;
39188;SDS011;24915;50.858;4.376;2023-05-07T12:20:35;6.47;;;4.00;;
39188;SDS011;24915;50.858;4.376;2023-05-07T12:23:01;6.63;;;3.90;;
39188;SDS011;24915;50.858;4.376;2023-05-07T12:25:31;5.55;;;3.72;;
39188;SDS011;24915;50.858;4.376;2023-05-07T12:27:57;5.18;;;3.63;;
39188;SDS011;24915;50.858;4.376;2023-05-07T12:30:25;6.25;;;3.92;;
39188;SDS011;24915;50.858;4.376;2023-05-07T12:32:55;8.45;;;4.90;;
39188;SDS011;24915;50.858;4.376;2023-05-07T12:35:30;5.07;;;2.95;;
39188;SDS011;24915;50.858;4.376;2023-05-07T12:37:59;3.92;;;3.03;;
39188;SDS011;24915;50.858;4.376;2023-05-07T12:40:38;5.30;;;2.83;;
39188;SDS011;24915;50.858;4.376;2023-05-07T12:43:05;5.25;;;3.10;;
39188;SDS011;24915;50.858;4.376;2023-05-07T12:45:31;7.18;;;3.15;;
39188;SDS011;24915;50.858;4.376;2023-05-07T12:48:00;4.72;;;3.40;;
39188;SDS011;24915;50.858;4.376;2023-05-07T12:50:30;4.32;;;3.40;;
39188;SDS011;24915;50.858;4.376;2023-05-07T12:52:57;9.07;;;3.78;;
39188;SDS011;24915;50.858;4.376;2023-05-07T12:55:23;3.80;;;3.50;;
39188;SDS011;24915;50.858;4.376;2023-05-07T12:57:50;5.43;;;3.97;;
39188;SDS011;24915;50.858;4.376;2023-05-07T13:00:16;6.05;;;4.60;;
39188;SDS011;24915;50.858;4.376;2023-05-07T13:02:43;8.30;;;4.75;;
39188;SDS011;24915;50.858;4.376;2023-05-07T13:05:09;4.80;;;4.35;;
39188;SDS011;24915;50.858;4.376;2023-05-07T13:07:35;6.35;;;5.75;;
39188;SDS011;24915;50.858;4.376;2023-05-07T13:10:02;9.02;;;5.80;;
39188;SDS011;24915;50.858;4.376;2023-05-07T13:12:28;8.43;;;5.30;;
39188;SDS011;24915;50.858;4.376;2023-05-07T13:14:54;6.93;;;6.03;;
39188;SDS011;24915;50.858;4.376;2023-05-07T13:17:21;7.75;;;5.22;;
39188;SDS011;24915;50.858;4.376;2023-05-07T13:19:47;5.93;;;5.32;;
39188;SDS011;24915;50.858;4.376;2023-05-07T13:22:13;8.63;;;6.47;;
39188;SDS011;24915;50.858;4.376;2023-05-07T13:24:39;6.18;;;5.63;;
39188;SDS011;24915;50.858;4.376;2023-05-07T13:27:06;5.95;;;5.45;;
39188;SDS011;24915;50.858;4.376;2023-05-07T13:29:32;9.60;;;6.75;;
39188;SDS011;24915;50.858;4.376;2023-05-07T13:31:59;11.98;;;8.98;;
39188;SDS011;24915;50.858;4.376;2023-05-07T13:34:25;10.32;;;8.05;;
39188;SDS011;24915;50.858;4.376;2023-05-07T13:36:51;11.40;;;7.22;;
39188;SDS011;24915;50.858;4.376;2023-05-07T13:39:17;7.53;;;6.70;;
39188;SDS011;24915;50.858;4.376;2023-05-07T13:41:43;8.43;;;6.78;;
39188;SDS011;24915;50.858;4.376;2023-05-07T13:44:09;8.90;;;8.00;;
39188;SDS011;24915;50.858;4.376;2023-05-07T13:46:35;9.82;;;8.82;;
39188;SDS011;24915;50.858;4.376;2023-05-07T13:49:01;13.88;;;12.38;;
39188;SDS011;24915;50.858;4.376;2023-05-07T13:51:28;13.20;;;11.13;;
39188;SDS011;24915;50.858;4.376;2023-05-07T13:53:54;10.57;;;9.30;;
39188;SDS011;24915;50.858;4.376;2023-05-07T13:56:20;9.80;;;8.80;;
39188;SDS011;24915;50.858;4.376;2023-05-07T13:58:46;49.80;;;24.30;;
39188;SDS011;24915;50.858;4.376;2023-05-07T14:01:12;24.65;;;16.35;;
39188;SDS011;24915;50.858;4.376;2023-05-07T14:03:38;11.70;;;10.60;;
39188;SDS011;24915;50.858;4.376;2023-05-07T14:06:05;10.50;;;9.57;;
39188;SDS011;24915;50.858;4.376;2023-05-07T14:08:31;11.32;;;10.23;;
39188;SDS011;24915;50.858;4.376;2023-05-07T14:10:57;11.68;;;10.50;;
39188;SDS011;24915;50.858;4.376;2023-05-07T14:13:23;11.88;;;9.93;;
39188;SDS011;24915;50.858;4.376;2023-05-07T14:15:50;13.68;;;10.85;;
39188;SDS011;24915;50.858;4.376;2023-05-07T14:18:16;11.80;;;10.70;;
39188;SDS011;24915;50.858;4.376;2023-05-07T14:20:42;11.55;;;10.45;;
39188;SDS011;24915;50.858;4.376;2023-05-07T14:23:10;17.60;;;10.85;;
39188;SDS011;24915;50.858;4.376;2023-05-07T14:25:36;14.77;;;12.02;;
39188;SDS011;24915;50.858;4.376;2023-05-07T14:28:03;11.60;;;10.40;;
39188;SDS011;24915;50.858;4.376;2023-05-07T14:30:29;13.32;;;9.82;;
39188;SDS011;24915;50.858;4.376;2023-05-07T14:32:55;11.23;;;9.23;;
39188;SDS011;24915;50.858;4.376;2023-05-07T14:35:21;11.07;;;9.80;;
39188;SDS011;24915;50.858;4.376;2023-05-07T14:37:47;10.10;;;8.57;;
39188;SDS011;24915;50.858;4.376;2023-05-07T14:40:13;9.05;;;8.15;;
39188;SDS011;24915;50.858;4.376;2023-05-07T14:42:39;11.45;;;9.80;;
39188;SDS011;24915;50.858;4.376;2023-05-07T14:45:06;12.35;;;9.93;;
39188;SDS011;24915;50.858;4.376;2023-05-07T14:47:32;10.90;;;9.57;;
39188;SDS011;24915;50.858;4.376;2023-05-07T14:49:58;11.68;;;10.02;;
39188;SDS011;24915;50.858;4.376;2023-05-07T14:52:25;12.05;;;10.85;;
39188;SDS011;24915;50.858;4.376;2023-05-07T14:54:52;16.85;;;11.77;;